sensor_id;sensor_type;location;lat;lon;timestamp;P1;durP1;ratioP1;P2;durP2;ratioP2
17251;SDS011;8742;51.716;8.790;2023-04-15T00:01:58;8.57;;;5.40;;
17251;SDS011;8742;51.716;8.790;2023-04-15T00:04:29;9.57;;;5.43;;
17251;SDS011;8742;51.716;8.790;2023-04-15T00:06:57;11.07;;;5.57;;
17251;SDS011;8742;51.716;8.790;2023-04-15T00:09:24;7.33;;;5.10;;
17251;SDS011;8742;51.716;8.790;2023-04-15T00:11:51;12.10;;;5.40;;
17251;SDS011;8742;51.716;8.790;2023-04-15T00:14:18;9.23;;;5.60;;
17251;SDS011;8742;51.716;8.790;2023-04-15T00:16:45;7.97;;;5.20;;
17251;SDS011;8742;51.716;8.790;2023-04-15T00:19:23;8.90;;;5.57;;
17251;SDS011;8742;51.716;8.790;2023-04-15T00:21:55;9.60;;;5.53;;
17251;SDS011;8742;51.716;8.790;2023-04-15T00:24:22;10.43;;;5.77;;
17251;SDS011;8742;51.716;8.790;2023-04-15T00:26:49;9.27;;;5.60;;
17251;SDS011;8742;51.716;8.790;2023-04-15T00:29:16;8.70;;;5.67;;
17251;SDS011;8742;51.716;8.790;2023-04-15T00:31:42;11.77;;;5.43;;
17251;SDS011;8742;51.716;8.790;2023-04-15T00:34:10;10.13;;;5.63;;
17251;SDS011;8742;51.716;8.790;2023-04-15T00:36:46;10.63;;;5.73;;
17251;SDS011;8742;51.716;8.790;2023-04-15T00:39:28;11.90;;;5.60;;
17251;SDS011;8742;51.716;8.790;2023-04-15T00:41:59;9.17;;;5.40;;
17251;SDS011;8742;51.716;8.790;2023-04-15T00:44:27;7.87;;;5.20;;
17251;SDS011;8742;51.716;8.790;2023-04-15T00:46:54;8.73;;;5.57;;
17251;SDS011;8742;51.716;8.790;2023-04-15T00:49:22;9.07;;;5.20;;
17251;SDS011;8742;51.716;8.790;2023-04-15T00:51:49;9.13;;;5.83;;
17251;SDS011;8742;51.716;8.790;2023-04-15T00:54:16;10.80;;;5.80;;
17251;SDS011;8742;51.716;8.790;2023-04-15T00:56:45;12.27;;;5.97;;
17251;SDS011;8742;51.716;8.790;2023-04-15T00:59:12;9.13;;;5.57;;
17251;SDS011;8742;51.716;8.790;2023-04-15T01:01:57;10.53;;;6.23;;
17251;SDS011;8742;51.716;8.790;2023-04-15T01:04:24;7.80;;;5.57;;
17251;SDS011;8742;51.716;8.790;2023-04-15T01:06:51;10.13;;;5.37;;
17251;SDS011;8742;51.716;8.790;2023-04-15T01:09:18;12.43;;;5.63;;
17251;SDS011;8742;51.716;8.790;2023-04-15T01:11:47;9.00;;;5.83;;
17251;SDS011;8742;51.716;8.790;2023-04-15T01:14:13;7.70;;;5.63;;
17251;SDS011;8742;51.716;8.790;2023-04-15T01:16:40;15.03;;;5.63;;
17251;SDS011;8742;51.716;8.790;2023-04-15T01:19:09;9.33;;;6.00;;
17251;SDS011;8742;51.716;8.790;2023-04-15T01:21:36;12.20;;;5.73;;
17251;SDS011;8742;51.716;8.790;2023-04-15T01:24:04;11.90;;;5.83;;
17251;SDS011;8742;51.716;8.790;2023-04-15T01:26:36;10.63;;;5.73;;
17251;SDS011;8742;51.716;8.790;2023-04-15T01:29:03;9.93;;;5.40;;
17251;SDS011;8742;51.716;8.790;2023-04-15T01:31:30;7.57;;;5.10;;
17251;SDS011;8742;51.716;8.790;2023-04-15T01:33:58;9.87;;;5.30;;
17251;SDS011;8742;51.716;8.790;2023-04-15T01:36:26;8.27;;;5.27;;
17251;SDS011;8742;51.716;8.790;2023-04-15T01:38:54;8.57;;;5.73;;
17251;SDS011;8742;51.716;8.790;2023-04-15T01:41:22;8.40;;;5.33;;
17251;SDS011;8742;51.716;8.790;2023-04-15T01:43:52;8.80;;;5.47;;
17251;SDS011;8742;51.716;8.790;2023-04-15T01:46:19;8.23;;;5.30;;
17251;SDS011;8742;51.716;8.790;2023-04-15T01:48:46;8.73;;;5.37;;
17251;SDS011;8742;51.716;8.790;2023-04-15T01:51:12;12.93;;;6.27;;
17251;SDS011;8742;51.716;8.790;2023-04-15T01:53:39;9.33;;;5.80;;
17251;SDS011;8742;51.716;8.790;2023-04-15T01:56:06;9.17;;;5.80;;
17251;SDS011;8742;51.716;8.790;2023-04-15T01:58:33;9.07;;;5.83;;
17251;SDS011;8742;51.716;8.790;2023-04-15T02:01:02;9.10;;;5.73;;
17251;SDS011;8742;51.716;8.790;2023-04-15T02:03:29;9.23;;;4.90;;
17251;SDS011;8742;51.716;8.790;2023-04-15T02:05:55;10.77;;;6.53;;
17251;SDS011;8742;51.716;8.790;2023-04-15T02:08:22;10.23;;;6.40;;
17251;SDS011;8742;51.716;8.790;2023-04-15T02:10:49;8.93;;;5.63;;
17251;SDS011;8742;51.716;8.790;2023-04-15T02:13:16;9.03;;;5.87;;
17251;SDS011;8742;51.716;8.790;2023-04-15T02:15:45;9.87;;;6.00;;
17251;SDS011;8742;51.716;8.790;2023-04-15T02:18:14;10.60;;;6.33;;
17251;SDS011;8742;51.716;8.790;2023-04-15T02:20:42;12.03;;;5.70;;
17251;SDS011;8742;51.716;8.790;2023-04-15T02:23:09;12.13;;;6.20;;
17251;SDS011;8742;51.716;8.790;2023-04-15T02:25:36;13.40;;;6.07;;
17251;SDS011;8742;51.716;8.790;2023-04-15T02:28:03;8.73;;;5.63;;
17251;SDS011;8742;51.716;8.790;2023-04-15T02:30:31;9.47;;;5.73;;
17251;SDS011;8742;51.716;8.790;2023-04-15T02:32:58;10.07;;;5.90;;
17251;SDS011;8742;51.716;8.790;2023-04-15T02:35:27;11.70;;;6.67;;
17251;SDS011;8742;51.716;8.790;2023-04-15T02:37:54;10.60;;;6.47;;
17251;SDS011;8742;51.716;8.790;2023-04-15T02:40:21;10.33;;;6.50;;
17251;SDS011;8742;51.716;8.790;2023-04-15T02:42:47;8.80;;;5.87;;
17251;SDS011;8742;51.716;8.790;2023-04-15T02:45:15;10.20;;;7.00;;
17251;SDS011;8742;51.716;8.790;2023-04-15T02:47:43;13.47;;;6.80;;
17251;SDS011;8742;51.716;8.790;2023-04-15T02:50:11;9.53;;;6.07;;
17251;SDS011;8742;51.716;8.790;2023-04-15T02:52:41;10.70;;;5.90;;
17251;SDS011;8742;51.716;8.790;2023-04-15T02:55:09;11.67;;;6.43;;
17251;SDS011;8742;51.716;8.790;2023-04-15T02:57:36;10.67;;;6.57;;
17251;SDS011;8742;51.716;8.790;2023-04-15T03:00:05;11.70;;;6.27;;
17251;SDS011;8742;51.716;8.790;2023-04-15T03:02:33;9.37;;;6.30;;
17251;SDS011;8742;51.716;8.790;2023-04-15T03:05:00;10.03;;;6.60;;
17251;SDS011;8742;51.716;8.790;2023-04-15T03:07:27;11.20;;;6.27;;
17251;SDS011;8742;51.716;8.790;2023-04-15T03:09:55;9.07;;;6.30;;
17251;SDS011;8742;51.716;8.790;2023-04-15T03:12:22;10.80;;;6.30;;
17251;SDS011;8742;51.716;8.790;2023-04-15T03:14:49;10.37;;;6.33;;
17251;SDS011;8742;51.716;8.790;2023-04-15T03:17:16;10.13;;;6.50;;
17251;SDS011;8742;51.716;8.790;2023-04-15T03:19:43;11.97;;;6.40;;
17251;SDS011;8742;51.716;8.790;2023-04-15T03:22:10;12.17;;;6.67;;
17251;SDS011;8742;51.716;8.790;2023-04-15T03:24:36;13.53;;;6.80;;
17251;SDS011;8742;51.716;8.790;2023-04-15T03:27:04;10.67;;;6.53;;
17251;SDS011;8742;51.716;8.790;2023-04-15T03:29:32;10.70;;;6.63;;
17251;SDS011;8742;51.716;8.790;2023-04-15T03:31:59;10.17;;;6.47;;
17251;SDS011;8742;51.716;8.790;2023-04-15T03:34:25;11.10;;;6.53;;
17251;SDS011;8742;51.716;8.790;2023-04-15T03:36:52;11.87;;;6.97;;
17251;SDS011;8742;51.716;8.790;2023-04-15T03:39:19;11.80;;;6.93;;
17251;SDS011;8742;51.716;8.790;2023-04-15T03:41:46;10.30;;;6.40;;
17251;SDS011;8742;51.716;8.790;2023-04-15T03:44:14;12.37;;;6.00;;
17251;SDS011;8742;51.716;8.790;2023-04-15T03:46:41;11.83;;;6.87;;
17251;SDS011;8742;51.716;8.790;2023-04-15T03:49:08;11.90;;;6.53;;
17251;SDS011;8742;51.716;8.790;2023-04-15T03:51:35;9.50;;;6.60;;
17251;SDS011;8742;51.716;8.790;2023-04-15T03:54:02;12.07;;;7.40;;
17251;SDS011;8742;51.716;8.790;2023-04-15T03:56:28;10.53;;;6.83;;
17251;SDS011;8742;51.716;8.790;2023-04-15T03:58:55;16.10;;;7.17;;
17251;SDS011;8742;51.716;8.790;2023-04-15T04:01:23;11.23;;;7.33;;
17251;SDS011;8742;51.716;8.790;2023-04-15T04:03:50;13.37;;;7.30;;
17251;SDS011;8742;51.716;8.790;2023-04-15T04:06:17;12.03;;;7.70;;
17251;SDS011;8742;51.716;8.790;2023-04-15T04:08:44;19.83;;;9.70;;
17251;SDS011;8742;51.716;8.790;2023-04-15T04:11:10;15.97;;;8.00;;
17251;SDS011;8742;51.716;8.790;2023-04-15T04:13:37;17.70;;;9.53;;
17251;SDS011;8742;51.716;8.790;2023-04-15T04:16:04;23.13;;;11.13;;
17251;SDS011;8742;51.716;8.790;2023-04-15T04:18:33;31.07;;;13.53;;
17251;SDS011;8742;51.716;8.790;2023-04-15T04:21:00;38.50;;;19.20;;
17251;SDS011;8742;51.716;8.790;2023-04-15T04:23:27;62.80;;;27.10;;
17251;SDS011;8742;51.716;8.790;2023-04-15T04:25:54;68.43;;;31.37;;
17251;SDS011;8742;51.716;8.790;2023-04-15T04:28:20;63.67;;;31.23;;
17251;SDS011;8742;51.716;8.790;2023-04-15T04:30:47;61.77;;;29.30;;
17251;SDS011;8742;51.716;8.790;2023-04-15T04:33:14;73.70;;;33.47;;
17251;SDS011;8742;51.716;8.790;2023-04-15T04:35:42;71.77;;;31.33;;
17251;SDS011;8742;51.716;8.790;2023-04-15T04:38:09;64.67;;;31.87;;
17251;SDS011;8742;51.716;8.790;2023-04-15T04:40:36;72.63;;;34.37;;
17251;SDS011;8742;51.716;8.790;2023-04-15T04:43:03;69.37;;;32.23;;
17251;SDS011;8742;51.716;8.790;2023-04-15T04:45:30;72.83;;;32.00;;
17251;SDS011;8742;51.716;8.790;2023-04-15T04:47:56;70.70;;;33.53;;
17251;SDS011;8742;51.716;8.790;2023-04-15T04:50:23;75.07;;;35.27;;
17251;SDS011;8742;51.716;8.790;2023-04-15T04:52:51;69.23;;;33.33;;
17251;SDS011;8742;51.716;8.790;2023-04-15T04:55:18;72.60;;;31.90;;
17251;SDS011;8742;51.716;8.790;2023-04-15T04:57:45;58.70;;;30.57;;
17251;SDS011;8742;51.716;8.790;2023-04-15T05:00:12;67.53;;;29.77;;
17251;SDS011;8742;51.716;8.790;2023-04-15T05:02:39;58.20;;;28.53;;
17251;SDS011;8742;51.716;8.790;2023-04-15T05:05:08;57.90;;;27.97;;
17251;SDS011;8742;51.716;8.790;2023-04-15T05:07:35;52.97;;;27.50;;
17251;SDS011;8742;51.716;8.790;2023-04-15T05:10:04;61.20;;;27.23;;
17251;SDS011;8742;51.716;8.790;2023-04-15T05:12:32;62.17;;;28.03;;
17251;SDS011;8742;51.716;8.790;2023-04-15T05:14:59;56.30;;;27.30;;
17251;SDS011;8742;51.716;8.790;2023-04-15T05:17:25;58.80;;;28.20;;
17251;SDS011;8742;51.716;8.790;2023-04-15T05:19:52;52.83;;;27.40;;
17251;SDS011;8742;51.716;8.790;2023-04-15T05:22:19;59.77;;;27.00;;
17251;SDS011;8742;51.716;8.790;2023-04-15T05:24:47;53.90;;;27.50;;
17251;SDS011;8742;51.716;8.790;2023-04-15T05:27:15;51.27;;;26.23;;
17251;SDS011;8742;51.716;8.790;2023-04-15T05:29:43;54.70;;;26.13;;
17251;SDS011;8742;51.716;8.790;2023-04-15T05:32:09;49.83;;;25.43;;
17251;SDS011;8742;51.716;8.790;2023-04-15T05:34:36;56.73;;;25.07;;
17251;SDS011;8742;51.716;8.790;2023-04-15T05:37:03;58.57;;;25.70;;
17251;SDS011;8742;51.716;8.790;2023-04-15T05:39:30;46.83;;;24.30;;
17251;SDS011;8742;51.716;8.790;2023-04-15T05:41:57;52.70;;;25.20;;
17251;SDS011;8742;51.716;8.790;2023-04-15T05:44:26;49.03;;;23.80;;
17251;SDS011;8742;51.716;8.790;2023-04-15T05:46:53;47.80;;;23.63;;
17251;SDS011;8742;51.716;8.790;2023-04-15T05:49:19;42.73;;;23.00;;
17251;SDS011;8742;51.716;8.790;2023-04-15T05:51:46;42.37;;;21.13;;
17251;SDS011;8742;51.716;8.790;2023-04-15T05:54:13;37.23;;;20.43;;
17251;SDS011;8742;51.716;8.790;2023-04-15T05:56:41;32.10;;;18.07;;
17251;SDS011;8742;51.716;8.790;2023-04-15T05:59:08;35.23;;;18.37;;
17251;SDS011;8742;51.716;8.790;2023-04-15T06:01:36;36.17;;;18.17;;
17251;SDS011;8742;51.716;8.790;2023-04-15T06:04:03;33.60;;;17.80;;
17251;SDS011;8742;51.716;8.790;2023-04-15T06:06:30;32.07;;;15.70;;
17251;SDS011;8742;51.716;8.790;2023-04-15T06:08:57;32.33;;;15.13;;
17251;SDS011;8742;51.716;8.790;2023-04-15T06:11:24;27.13;;;14.83;;
17251;SDS011;8742;51.716;8.790;2023-04-15T06:13:51;28.03;;;14.63;;
17251;SDS011;8742;51.716;8.790;2023-04-15T06:16:18;29.60;;;13.80;;
17251;SDS011;8742;51.716;8.790;2023-04-15T06:18:46;26.83;;;14.03;;
17251;SDS011;8742;51.716;8.790;2023-04-15T06:21:13;24.83;;;11.87;;
17251;SDS011;8742;51.716;8.790;2023-04-15T06:23:40;23.37;;;12.23;;
17251;SDS011;8742;51.716;8.790;2023-04-15T06:26:07;22.07;;;11.87;;
17251;SDS011;8742;51.716;8.790;2023-04-15T06:28:34;21.20;;;11.43;;
17251;SDS011;8742;51.716;8.790;2023-04-15T06:31:01;18.17;;;10.60;;
17251;SDS011;8742;51.716;8.790;2023-04-15T06:33:28;20.30;;;11.83;;
17251;SDS011;8742;51.716;8.790;2023-04-15T06:35:57;20.70;;;11.93;;
17251;SDS011;8742;51.716;8.790;2023-04-15T06:38:23;21.57;;;12.07;;
17251;SDS011;8742;51.716;8.790;2023-04-15T06:40:50;19.20;;;11.90;;
17251;SDS011;8742;51.716;8.790;2023-04-15T06:45:50;19.00;;;10.90;;
17251;SDS011;8742;51.716;8.790;2023-04-15T06:48:17;19.20;;;11.47;;
17251;SDS011;8742;51.716;8.790;2023-04-15T06:50:44;19.53;;;11.93;;
17251;SDS011;8742;51.716;8.790;2023-04-15T06:53:12;19.47;;;11.13;;
17251;SDS011;8742;51.716;8.790;2023-04-15T06:55:39;18.17;;;11.13;;
17251;SDS011;8742;51.716;8.790;2023-04-15T06:58:06;22.10;;;11.40;;
17251;SDS011;8742;51.716;8.790;2023-04-15T07:00:33;21.07;;;11.67;;
17251;SDS011;8742;51.716;8.790;2023-04-15T07:03:00;20.03;;;11.93;;
17251;SDS011;8742;51.716;8.790;2023-04-15T07:05:27;18.53;;;11.60;;
17251;SDS011;8742;51.716;8.790;2023-04-15T07:07:55;23.17;;;12.80;;
17251;SDS011;8742;51.716;8.790;2023-04-15T07:10:23;21.67;;;12.47;;
17251;SDS011;8742;51.716;8.790;2023-04-15T07:12:50;21.67;;;12.33;;
17251;SDS011;8742;51.716;8.790;2023-04-15T07:15:16;20.50;;;11.70;;
17251;SDS011;8742;51.716;8.790;2023-04-15T07:17:43;19.93;;;11.57;;
17251;SDS011;8742;51.716;8.790;2023-04-15T07:20:10;23.17;;;12.37;;
17251;SDS011;8742;51.716;8.790;2023-04-15T07:22:38;19.43;;;11.77;;
17251;SDS011;8742;51.716;8.790;2023-04-15T07:25:05;23.87;;;12.87;;
17251;SDS011;8742;51.716;8.790;2023-04-15T07:27:34;21.23;;;12.07;;
17251;SDS011;8742;51.716;8.790;2023-04-15T07:30:01;20.97;;;12.07;;
17251;SDS011;8742;51.716;8.790;2023-04-15T07:32:28;22.57;;;12.13;;
17251;SDS011;8742;51.716;8.790;2023-04-15T07:34:55;26.07;;;12.93;;
17251;SDS011;8742;51.716;8.790;2023-04-15T07:37:22;23.63;;;13.33;;
17251;SDS011;8742;51.716;8.790;2023-04-15T07:39:49;23.23;;;13.03;;
17251;SDS011;8742;51.716;8.790;2023-04-15T07:42:16;21.90;;;12.93;;
17251;SDS011;8742;51.716;8.790;2023-04-15T07:44:45;25.57;;;13.50;;
17251;SDS011;8742;51.716;8.790;2023-04-15T07:47:11;26.33;;;14.10;;
17251;SDS011;8742;51.716;8.790;2023-04-15T07:49:40;24.07;;;13.30;;
17251;SDS011;8742;51.716;8.790;2023-04-15T07:52:07;27.20;;;14.20;;
17251;SDS011;8742;51.716;8.790;2023-04-15T07:54:34;24.37;;;14.77;;
17251;SDS011;8742;51.716;8.790;2023-04-15T07:57:01;24.70;;;15.53;;
17251;SDS011;8742;51.716;8.790;2023-04-15T07:59:28;29.37;;;14.83;;
17251;SDS011;8742;51.716;8.790;2023-04-15T08:01:58;27.97;;;14.63;;
17251;SDS011;8742;51.716;8.790;2023-04-15T08:04:25;23.93;;;13.73;;
17251;SDS011;8742;51.716;8.790;2023-04-15T08:06:52;25.10;;;13.23;;
17251;SDS011;8742;51.716;8.790;2023-04-15T08:09:19;24.00;;;13.23;;
17251;SDS011;8742;51.716;8.790;2023-04-15T08:11:47;23.63;;;13.13;;
17251;SDS011;8742;51.716;8.790;2023-04-15T08:14:14;27.73;;;13.93;;
17251;SDS011;8742;51.716;8.790;2023-04-15T08:16:41;23.80;;;12.97;;
17251;SDS011;8742;51.716;8.790;2023-04-15T08:19:10;23.40;;;13.47;;
17251;SDS011;8742;51.716;8.790;2023-04-15T08:21:36;26.73;;;14.43;;
17251;SDS011;8742;51.716;8.790;2023-04-15T08:24:04;24.57;;;13.90;;
17251;SDS011;8742;51.716;8.790;2023-04-15T08:26:32;27.53;;;14.70;;
17251;SDS011;8742;51.716;8.790;2023-04-15T08:28:58;25.47;;;14.47;;
17251;SDS011;8742;51.716;8.790;2023-04-15T08:31:25;27.47;;;14.33;;
17251;SDS011;8742;51.716;8.790;2023-04-15T08:33:55;23.57;;;14.10;;
17251;SDS011;8742;51.716;8.790;2023-04-15T08:36:23;23.20;;;13.03;;
17251;SDS011;8742;51.716;8.790;2023-04-15T08:38:51;25.73;;;13.47;;
17251;SDS011;8742;51.716;8.790;2023-04-15T08:41:19;24.13;;;14.07;;
17251;SDS011;8742;51.716;8.790;2023-04-15T08:43:50;23.27;;;13.13;;
17251;SDS011;8742;51.716;8.790;2023-04-15T08:46:19;23.90;;;12.60;;
17251;SDS011;8742;51.716;8.790;2023-04-15T08:48:46;21.80;;;12.33;;
17251;SDS011;8742;51.716;8.790;2023-04-15T08:51:14;23.13;;;12.90;;
17251;SDS011;8742;51.716;8.790;2023-04-15T08:53:44;28.93;;;15.73;;
17251;SDS011;8742;51.716;8.790;2023-04-15T08:56:12;31.67;;;17.00;;
17251;SDS011;8742;51.716;8.790;2023-04-15T08:58:40;30.53;;;15.77;;
17251;SDS011;8742;51.716;8.790;2023-04-15T09:01:08;20.50;;;12.00;;
17251;SDS011;8742;51.716;8.790;2023-04-15T09:03:36;21.90;;;12.80;;
17251;SDS011;8742;51.716;8.790;2023-04-15T09:06:04;24.17;;;12.83;;
17251;SDS011;8742;51.716;8.790;2023-04-15T09:08:31;13.83;;;9.00;;
17251;SDS011;8742;51.716;8.790;2023-04-15T09:11:00;14.57;;;9.10;;
17251;SDS011;8742;51.716;8.790;2023-04-15T09:13:27;18.43;;;8.97;;
17251;SDS011;8742;51.716;8.790;2023-04-15T09:15:54;15.10;;;8.70;;
17251;SDS011;8742;51.716;8.790;2023-04-15T09:18:28;17.73;;;9.77;;
17251;SDS011;8742;51.716;8.790;2023-04-15T09:20:56;18.20;;;9.10;;
17251;SDS011;8742;51.716;8.790;2023-04-15T09:23:30;14.20;;;7.90;;
17251;SDS011;8742;51.716;8.790;2023-04-15T09:25:57;16.93;;;8.23;;
17251;SDS011;8742;51.716;8.790;2023-04-15T09:28:26;16.63;;;9.43;;
17251;SDS011;8742;51.716;8.790;2023-04-15T09:30:56;19.33;;;10.03;;
17251;SDS011;8742;51.716;8.790;2023-04-15T09:33:23;19.97;;;11.17;;
17251;SDS011;8742;51.716;8.790;2023-04-15T09:35:57;18.27;;;10.23;;
17251;SDS011;8742;51.716;8.790;2023-04-15T09:38:25;16.60;;;9.77;;
17251;SDS011;8742;51.716;8.790;2023-04-15T09:40:53;19.03;;;10.53;;
17251;SDS011;8742;51.716;8.790;2023-04-15T09:43:21;23.07;;;10.80;;
17251;SDS011;8742;51.716;8.790;2023-04-15T09:46:01;21.43;;;11.10;;
17251;SDS011;8742;51.716;8.790;2023-04-15T09:48:28;18.63;;;9.23;;
17251;SDS011;8742;51.716;8.790;2023-04-15T09:50:56;17.00;;;9.23;;
17251;SDS011;8742;51.716;8.790;2023-04-15T09:53:24;16.17;;;8.73;;
17251;SDS011;8742;51.716;8.790;2023-04-15T09:55:53;16.07;;;8.53;;
17251;SDS011;8742;51.716;8.790;2023-04-15T09:58:22;15.37;;;9.53;;
17251;SDS011;8742;51.716;8.790;2023-04-15T10:00:50;16.73;;;9.93;;
17251;SDS011;8742;51.716;8.790;2023-04-15T10:03:18;20.87;;;8.87;;
17251;SDS011;8742;51.716;8.790;2023-04-15T10:05:47;16.33;;;8.60;;
17251;SDS011;8742;51.716;8.790;2023-04-15T10:08:16;19.67;;;8.50;;
17251;SDS011;8742;51.716;8.790;2023-04-15T10:10:44;12.40;;;8.07;;
17251;SDS011;8742;51.716;8.790;2023-04-15T10:13:12;16.37;;;7.87;;
17251;SDS011;8742;51.716;8.790;2023-04-15T10:15:41;12.10;;;7.70;;
17251;SDS011;8742;51.716;8.790;2023-04-15T10:18:10;13.13;;;7.37;;
17251;SDS011;8742;51.716;8.790;2023-04-15T10:20:38;12.57;;;7.23;;
17251;SDS011;8742;51.716;8.790;2023-04-15T10:23:06;13.37;;;8.33;;
17251;SDS011;8742;51.716;8.790;2023-04-15T10:25:34;12.43;;;7.83;;
17251;SDS011;8742;51.716;8.790;2023-04-15T10:28:02;17.23;;;8.30;;
17251;SDS011;8742;51.716;8.790;2023-04-15T10:30:30;13.37;;;7.90;;
17251;SDS011;8742;51.716;8.790;2023-04-15T10:32:59;12.60;;;7.37;;
17251;SDS011;8742;51.716;8.790;2023-04-15T10:35:28;14.27;;;7.40;;
17251;SDS011;8742;51.716;8.790;2023-04-15T10:37:56;13.43;;;7.57;;
17251;SDS011;8742;51.716;8.790;2023-04-15T10:40:23;13.23;;;8.40;;
17251;SDS011;8742;51.716;8.790;2023-04-15T10:42:52;13.77;;;7.73;;
17251;SDS011;8742;51.716;8.790;2023-04-15T10:45:19;12.10;;;7.50;;
17251;SDS011;8742;51.716;8.790;2023-04-15T10:47:50;13.33;;;7.27;;
17251;SDS011;8742;51.716;8.790;2023-04-15T10:50:20;16.13;;;8.10;;
17251;SDS011;8742;51.716;8.790;2023-04-15T10:52:49;12.00;;;7.47;;
17251;SDS011;8742;51.716;8.790;2023-04-15T10:55:18;15.10;;;8.30;;
17251;SDS011;8742;51.716;8.790;2023-04-15T10:57:48;12.70;;;7.77;;
17251;SDS011;8742;51.716;8.790;2023-04-15T11:00:18;17.77;;;8.23;;
17251;SDS011;8742;51.716;8.790;2023-04-15T11:02:46;12.80;;;7.80;;
17251;SDS011;8742;51.716;8.790;2023-04-15T11:05:17;16.00;;;8.77;;
17251;SDS011;8742;51.716;8.790;2023-04-15T11:07:54;16.27;;;9.07;;
17251;SDS011;8742;51.716;8.790;2023-04-15T11:13:22;16.33;;;9.17;;
17251;SDS011;8742;51.716;8.790;2023-04-15T11:16:03;15.83;;;9.17;;
17251;SDS011;8742;51.716;8.790;2023-04-15T11:18:34;12.90;;;8.27;;
17251;SDS011;8742;51.716;8.790;2023-04-15T11:21:03;17.70;;;8.43;;
17251;SDS011;8742;51.716;8.790;2023-04-15T11:23:33;14.17;;;8.70;;
17251;SDS011;8742;51.716;8.790;2023-04-15T11:26:02;12.70;;;8.10;;
17251;SDS011;8742;51.716;8.790;2023-04-15T11:28:33;12.83;;;8.03;;
17251;SDS011;8742;51.716;8.790;2023-04-15T11:31:04;12.50;;;8.00;;
17251;SDS011;8742;51.716;8.790;2023-04-15T11:33:32;15.83;;;7.80;;
17251;SDS011;8742;51.716;8.790;2023-04-15T11:35:59;13.07;;;8.30;;
17251;SDS011;8742;51.716;8.790;2023-04-15T11:38:27;12.43;;;8.67;;
17251;SDS011;8742;51.716;8.790;2023-04-15T11:40:56;13.57;;;8.00;;
17251;SDS011;8742;51.716;8.790;2023-04-15T11:43:23;12.83;;;7.27;;
17251;SDS011;8742;51.716;8.790;2023-04-15T11:45:51;11.87;;;7.73;;
17251;SDS011;8742;51.716;8.790;2023-04-15T11:48:20;10.60;;;6.87;;
17251;SDS011;8742;51.716;8.790;2023-04-15T11:50:52;11.20;;;7.33;;
17251;SDS011;8742;51.716;8.790;2023-04-15T11:53:20;10.47;;;6.93;;
17251;SDS011;8742;51.716;8.790;2023-04-15T11:55:48;13.03;;;7.53;;
17251;SDS011;8742;51.716;8.790;2023-04-15T11:58:18;12.60;;;7.30;;
17251;SDS011;8742;51.716;8.790;2023-04-15T12:00:47;12.83;;;7.60;;
17251;SDS011;8742;51.716;8.790;2023-04-15T12:03:17;12.60;;;7.17;;
17251;SDS011;8742;51.716;8.790;2023-04-15T12:08:52;10.30;;;6.30;;
17251;SDS011;8742;51.716;8.790;2023-04-15T12:11:38;10.07;;;6.47;;
17251;SDS011;8742;51.716;8.790;2023-04-15T12:14:21;9.77;;;6.83;;
17251;SDS011;8742;51.716;8.790;2023-04-15T12:16:51;12.23;;;6.80;;
17251;SDS011;8742;51.716;8.790;2023-04-15T12:19:21;10.10;;;6.53;;
17251;SDS011;8742;51.716;8.790;2023-04-15T12:21:50;9.93;;;5.63;;
17251;SDS011;8742;51.716;8.790;2023-04-15T12:24:19;10.30;;;6.00;;
17251;SDS011;8742;51.716;8.790;2023-04-15T12:26:48;8.60;;;5.83;;
17251;SDS011;8742;51.716;8.790;2023-04-15T12:29:16;9.13;;;6.03;;
17251;SDS011;8742;51.716;8.790;2023-04-15T12:31:51;9.67;;;6.07;;
17251;SDS011;8742;51.716;8.790;2023-04-15T12:34:24;10.03;;;6.40;;
17251;SDS011;8742;51.716;8.790;2023-04-15T12:36:53;8.63;;;6.20;;
17251;SDS011;8742;51.716;8.790;2023-04-15T12:39:21;17.77;;;7.73;;
17251;SDS011;8742;51.716;8.790;2023-04-15T12:41:48;11.13;;;7.10;;
17251;SDS011;8742;51.716;8.790;2023-04-15T12:44:15;12.10;;;7.00;;
17251;SDS011;8742;51.716;8.790;2023-04-15T12:46:42;11.40;;;7.10;;
17251;SDS011;8742;51.716;8.790;2023-04-15T12:49:11;10.63;;;6.70;;
17251;SDS011;8742;51.716;8.790;2023-04-15T12:51:40;9.53;;;6.67;;
17251;SDS011;8742;51.716;8.790;2023-04-15T12:54:07;11.27;;;6.90;;
17251;SDS011;8742;51.716;8.790;2023-04-15T12:56:34;11.10;;;6.93;;
17251;SDS011;8742;51.716;8.790;2023-04-15T12:59:01;10.37;;;6.43;;
17251;SDS011;8742;51.716;8.790;2023-04-15T13:01:28;8.70;;;5.80;;
17251;SDS011;8742;51.716;8.790;2023-04-15T13:03:55;10.33;;;6.77;;
17251;SDS011;8742;51.716;8.790;2023-04-15T13:06:24;8.57;;;6.20;;
17251;SDS011;8742;51.716;8.790;2023-04-15T13:09:05;10.77;;;6.73;;
17251;SDS011;8742;51.716;8.790;2023-04-15T13:11:32;12.93;;;6.47;;
17251;SDS011;8742;51.716;8.790;2023-04-15T13:14:07;10.27;;;6.50;;
17251;SDS011;8742;51.716;8.790;2023-04-15T13:16:35;8.73;;;6.40;;
17251;SDS011;8742;51.716;8.790;2023-04-15T13:19:02;9.07;;;6.17;;
17251;SDS011;8742;51.716;8.790;2023-04-15T13:21:33;8.37;;;6.27;;
17251;SDS011;8742;51.716;8.790;2023-04-15T13:24:01;8.93;;;6.30;;
17251;SDS011;8742;51.716;8.790;2023-04-15T13:26:31;7.23;;;5.30;;
17251;SDS011;8742;51.716;8.790;2023-04-15T13:29:00;9.33;;;5.80;;
17251;SDS011;8742;51.716;8.790;2023-04-15T13:31:27;8.40;;;5.80;;
17251;SDS011;8742;51.716;8.790;2023-04-15T13:34:08;7.67;;;5.30;;
17251;SDS011;8742;51.716;8.790;2023-04-15T13:36:36;9.37;;;5.60;;
17251;SDS011;8742;51.716;8.790;2023-04-15T13:39:03;8.60;;;5.23;;
17251;SDS011;8742;51.716;8.790;2023-04-15T13:41:30;7.53;;;5.00;;
17251;SDS011;8742;51.716;8.790;2023-04-15T13:43:57;6.60;;;5.27;;
17251;SDS011;8742;51.716;8.790;2023-04-15T13:46:24;6.80;;;5.37;;
17251;SDS011;8742;51.716;8.790;2023-04-15T13:48:52;8.43;;;5.53;;
17251;SDS011;8742;51.716;8.790;2023-04-15T13:51:19;7.03;;;5.17;;
17251;SDS011;8742;51.716;8.790;2023-04-15T13:53:49;7.13;;;5.37;;
17251;SDS011;8742;51.716;8.790;2023-04-15T13:56:30;9.93;;;5.83;;
17251;SDS011;8742;51.716;8.790;2023-04-15T13:58:57;6.57;;;5.03;;
17251;SDS011;8742;51.716;8.790;2023-04-15T14:01:37;8.50;;;6.40;;
17251;SDS011;8742;51.716;8.790;2023-04-15T14:04:12;7.50;;;5.63;;
17251;SDS011;8742;51.716;8.790;2023-04-15T14:06:38;8.40;;;5.50;;
17251;SDS011;8742;51.716;8.790;2023-04-15T14:09:07;7.97;;;6.10;;
17251;SDS011;8742;51.716;8.790;2023-04-15T14:11:34;7.67;;;4.90;;
17251;SDS011;8742;51.716;8.790;2023-04-15T14:14:03;8.00;;;5.83;;
17251;SDS011;8742;51.716;8.790;2023-04-15T14:16:31;8.63;;;6.20;;
17251;SDS011;8742;51.716;8.790;2023-04-15T14:18:58;10.10;;;6.50;;
17251;SDS011;8742;51.716;8.790;2023-04-15T14:21:24;8.07;;;5.73;;
17251;SDS011;8742;51.716;8.790;2023-04-15T14:23:52;10.80;;;6.20;;
17251;SDS011;8742;51.716;8.790;2023-04-15T14:26:20;8.33;;;5.67;;
17251;SDS011;8742;51.716;8.790;2023-04-15T14:28:47;10.00;;;6.60;;
17251;SDS011;8742;51.716;8.790;2023-04-15T14:31:14;9.50;;;6.33;;
17251;SDS011;8742;51.716;8.790;2023-04-15T14:33:40;9.63;;;5.93;;
17251;SDS011;8742;51.716;8.790;2023-04-15T14:36:07;13.30;;;6.63;;
17251;SDS011;8742;51.716;8.790;2023-04-15T14:38:35;10.77;;;6.63;;
17251;SDS011;8742;51.716;8.790;2023-04-15T14:41:04;10.03;;;6.80;;
17251;SDS011;8742;51.716;8.790;2023-04-15T14:43:32;11.97;;;7.03;;
17251;SDS011;8742;51.716;8.790;2023-04-15T14:45:59;11.67;;;6.70;;
17251;SDS011;8742;51.716;8.790;2023-04-15T14:48:26;11.50;;;7.20;;
17251;SDS011;8742;51.716;8.790;2023-04-15T14:50:53;11.30;;;7.30;;
17251;SDS011;8742;51.716;8.790;2023-04-15T14:53:20;12.17;;;7.90;;
17251;SDS011;8742;51.716;8.790;2023-04-15T14:55:47;10.77;;;7.43;;
17251;SDS011;8742;51.716;8.790;2023-04-15T14:58:14;11.53;;;7.57;;
17251;SDS011;8742;51.716;8.790;2023-04-15T15:00:42;15.30;;;7.73;;